Terminal Aerodrome Forecast
Issued by NWS Sioux Falls, SD

Home | Current Version | Previous Version | Graphics & Text | Print | Product List | Glossary On
Versions: 1 2 3 4 5 6 7 8 9 10 11 12 13 14 15
000
FTUS43 KFSD 232356
TAFFSD
TAF
KFSD 232356Z 2400/2424 21008KT P6SM SCT100
     FM240400 19004KT P6SM SCT150
     FM241100 VRB03KT 5SM BR SCT130
     FM241200 VRB03KT P6SM SCT120
     FM241900 16007KT P6SM SCT150=

USA.gov is the U.S. government's official web portal to all federal, state and local government web resources and services.